CPX661 Details

Departure: Tampa International Airport (KTPA)
Arrival: Miami International Airport (KMIA)
Route: GANDY8 SABEE CYY CYY9


Current Weather Information
KTPA 252253Z 26008KT 10SM FEW040 24/16 A3004 RMK AO2 SLP172 T02440161 $
KMIA 252253Z 12010KT 10SM FEW025 FEW042 FEW250 25/19 A3002 RMK AO2 SLP164 T02500194